Messwerte Ancona

Temperatur

Temperatur
°C
1579370400 19.00 19.00 7
1579374000 20.00 20.00 8
1579377600 21.00 21.00 8
1579381200 22.00 22.00 8
1579384800 23.00 23.00 8
1579388400 0.00 0.00 8
1579392000 1.00 1.00 7
1579395600 2.00 2.00 8
1579399200 3.00 3.00 8
1579402800 4.00 4.00 8
1579406400 5.00 5.00
1579410000 6.00 6.00 9
1579413600 7.00 7.00 9
1579417200 8.00 8.00 8
1579420800 9.00 9.00 9
1579424400 10.00 10.00
1579428000 11.00 11.00 9
1579431600 12.00 12.00 8
1579435200 13.00 13.00 8
1579438800 14.00 14.00 8
1579442400 15.00 15.00 8
1579446000 16.00 16.00 8
1579449600 17.00 17.00 7
1579453200 18.00 18.00 8

Aktuellste Messwerte

Wettercharakter
Wetter: wechselnd bewölkt
Temperatur
7 °C
Feuchtigkeit
80 %
Wind
5 km/hWindrichtung: Südwest
Luftdruck
1030 hPa
Messzeit: 19. Januar 2020, 19.00Datenquelle: METAR

Weitere Messstationen in der Nähe

Messstation Temperatur Entfernung
Frontone 3 °C 53 km
Rimini 9 °C 75 km
Perugia 8 °C 92 km
Cervia 5 °C 109 km
Ravenna Marino 8 °C 126 km
Pescara 8 °C 148 km
Pula 6 °C 149 km

Wind

Windrichtung Böen Mittelwind
° km/h km/h
1579370400 19.00 18.00 - 19.00 250° 5
1579374000 20.00 19.00 - 20.00 280° 10
1579377600 21.00 20.00 - 21.00 270° 15
1579381200 22.00 21.00 - 22.00 270° 15
1579384800 23.00 22.00 - 23.00 280° 20
1579388400 0.00 23.00 - 0.00 270° 15
1579392000 1.00 0.00 - 1.00 270° 20
1579395600 2.00 1.00 - 2.00 270° 15
1579399200 3.00 2.00 - 3.00 180° 5
1579402800 4.00 3.00 - 4.00 210° 5
1579406400 5.00 4.00 - 5.00
1579410000 6.00 5.00 - 6.00 30° 15
1579413600 7.00 6.00 - 7.00 160° 5
1579417200 8.00 7.00 - 8.00 170° 5
1579420800 9.00 8.00 - 9.00 5
1579424400 10.00 9.00 - 10.00
1579428000 11.00 10.00 - 11.00 340° 5
1579431600 12.00 11.00 - 12.00 310° 15
1579435200 13.00 12.00 - 13.00 210° 5
1579438800 14.00 13.00 - 14.00 220° 10
1579442400 15.00 14.00 - 15.00 230° 5
1579446000 16.00 15.00 - 16.00 250° 5
1579449600 17.00 16.00 - 17.00 200° 5
1579453200 18.00 17.00 - 18.00 340° 10

Ihre Wetterstation

Fehlt Ihre Wetterstation auf unserem Portal?

Schreiben Sie an network@meteonews.ch

Klima

Wann ist es am wärmsten? Wann regnet es am wenigsten? Unsere Klimadaten geben Auskunft.